sensor_id;sensor_type;location;lat;lon;timestamp;temperature;humidity
5775;DHT22;2913;51.120;6.772;2023-02-08T00:00:46;0.50;99.90
5775;DHT22;2913;51.120;6.772;2023-02-08T00:03:14;0.50;99.90
5775;DHT22;2913;51.120;6.772;2023-02-08T00:05:40;0.50;99.90
5775;DHT22;2913;51.120;6.772;2023-02-08T00:08:06;0.40;99.90
5775;DHT22;2913;51.120;6.772;2023-02-08T00:10:32;0.40;99.90
5775;DHT22;2913;51.120;6.772;2023-02-08T00:12:58;0.40;99.90
5775;DHT22;2913;51.120;6.772;2023-02-08T00:15:23;0.40;99.90
5775;DHT22;2913;51.120;6.772;2023-02-08T00:17:49;0.40;99.90
5775;DHT22;2913;51.120;6.772;2023-02-08T00:20:15;0.40;99.90
5775;DHT22;2913;51.120;6.772;2023-02-08T00:22:40;0.40;99.90
5775;DHT22;2913;51.120;6.772;2023-02-08T00:25:07;0.40;99.90
5775;DHT22;2913;51.120;6.772;2023-02-08T00:27:32;0.30;99.90
5775;DHT22;2913;51.120;6.772;2023-02-08T00:30:00;0.30;99.90
5775;DHT22;2913;51.120;6.772;2023-02-08T00:32:26;0.30;99.90
5775;DHT22;2913;51.120;6.772;2023-02-08T00:34:52;0.30;99.90
5775;DHT22;2913;51.120;6.772;2023-02-08T00:37:20;0.40;99.90
5775;DHT22;2913;51.120;6.772;2023-02-08T00:39:45;0.30;99.90
5775;DHT22;2913;51.120;6.772;2023-02-08T00:42:11;0.30;99.90
5775;DHT22;2913;51.120;6.772;2023-02-08T00:44:36;0.20;99.90
5775;DHT22;2913;51.120;6.772;2023-02-08T00:47:04;0.20;99.90
5775;DHT22;2913;51.120;6.772;2023-02-08T00:49:30;0.30;99.90
5775;DHT22;2913;51.120;6.772;2023-02-08T00:51:58;0.20;99.90
5775;DHT22;2913;51.120;6.772;2023-02-08T00:54:26;0.20;99.90
5775;DHT22;2913;51.120;6.772;2023-02-08T00:56:54;0.20;99.90
5775;DHT22;2913;51.120;6.772;2023-02-08T00:59:19;0.20;99.90
5775;DHT22;2913;51.120;6.772;2023-02-08T01:01:45;0.10;99.90
5775;DHT22;2913;51.120;6.772;2023-02-08T01:04:14;0.10;99.90
5775;DHT22;2913;51.120;6.772;2023-02-08T01:06:42;0.10;99.90
5775;DHT22;2913;51.120;6.772;2023-02-08T01:09:10;0.10;99.90
5775;DHT22;2913;51.120;6.772;2023-02-08T01:11:38;0.10;99.90
5775;DHT22;2913;51.120;6.772;2023-02-08T01:14:03;0.00;99.90
5775;DHT22;2913;51.120;6.772;2023-02-08T01:16:32;0.10;99.90
5775;DHT22;2913;51.120;6.772;2023-02-08T01:19:01;0.00;99.90
5775;DHT22;2913;51.120;6.772;2023-02-08T01:21:32;0.00;99.90
5775;DHT22;2913;51.120;6.772;2023-02-08T01:23:59;-0.10;99.90
5775;DHT22;2913;51.120;6.772;2023-02-08T01:26:28;-0.10;99.90
5775;DHT22;2913;51.120;6.772;2023-02-08T01:28:58;-0.20;99.90
5775;DHT22;2913;51.120;6.772;2023-02-08T01:31:27;-0.30;99.90
5775;DHT22;2913;51.120;6.772;2023-02-08T01:33:57;-0.30;99.90
5775;DHT22;2913;51.120;6.772;2023-02-08T01:36:24;-0.30;99.90
5775;DHT22;2913;51.120;6.772;2023-02-08T01:38:54;-0.40;99.90
5775;DHT22;2913;51.120;6.772;2023-02-08T01:41:29;-0.40;99.90
5775;DHT22;2913;51.120;6.772;2023-02-08T01:44:05;-0.50;99.90
5775;DHT22;2913;51.120;6.772;2023-02-08T01:46:44;-0.50;99.90
5775;DHT22;2913;51.120;6.772;2023-02-08T01:51:56;-0.50;99.90
5775;DHT22;2913;51.120;6.772;2023-02-08T01:54:29;-0.50;99.90
5775;DHT22;2913;51.120;6.772;2023-02-08T01:56:56;-0.60;99.90
5775;DHT22;2913;51.120;6.772;2023-02-08T01:59:25;-0.60;99.90
5775;DHT22;2913;51.120;6.772;2023-02-08T02:01:55;-0.60;99.90
5775;DHT22;2913;51.120;6.772;2023-02-08T02:04:25;-0.60;99.90
5775;DHT22;2913;51.120;6.772;2023-02-08T02:06:56;-0.60;99.90
5775;DHT22;2913;51.120;6.772;2023-02-08T02:12:26;-0.60;99.90
5775;DHT22;2913;51.120;6.772;2023-02-08T02:14:55;-0.60;99.90
5775;DHT22;2913;51.120;6.772;2023-02-08T02:17:20;-0.70;99.90
5775;DHT22;2913;51.120;6.772;2023-02-08T02:33:36;-0.90;99.90
5775;DHT22;2913;51.120;6.772;2023-02-08T02:36:28;-0.90;99.90
5775;DHT22;2913;51.120;6.772;2023-02-08T02:38:59;-0.90;99.90
5775;DHT22;2913;51.120;6.772;2023-02-08T02:45:42;-0.90;99.90
5775;DHT22;2913;51.120;6.772;2023-02-08T02:50:29;-0.90;99.90
5775;DHT22;2913;51.120;6.772;2023-02-08T02:53:46;-0.90;99.90
5775;DHT22;2913;51.120;6.772;2023-02-08T02:55:58;-0.90;99.90
5775;DHT22;2913;51.120;6.772;2023-02-08T02:58:26;-0.90;99.90
5775;DHT22;2913;51.120;6.772;2023-02-08T03:00:55;-0.80;99.90
5775;DHT22;2913;51.120;6.772;2023-02-08T03:03:26;-0.80;99.90
5775;DHT22;2913;51.120;6.772;2023-02-08T03:06:06;-0.80;99.90
5775;DHT22;2913;51.120;6.772;2023-02-08T03:11:17;-0.70;99.90
5775;DHT22;2913;51.120;6.772;2023-02-08T03:19:36;-0.70;99.90
5775;DHT22;2913;51.120;6.772;2023-02-08T03:22:24;-0.70;99.90
5775;DHT22;2913;51.120;6.772;2023-02-08T03:25:09;-0.70;99.90
5775;DHT22;2913;51.120;6.772;2023-02-08T03:27:51;-0.70;99.90
5775;DHT22;2913;51.120;6.772;2023-02-08T03:30:34;-0.70;99.90
5775;DHT22;2913;51.120;6.772;2023-02-08T03:33:12;-0.70;99.90
5775;DHT22;2913;51.120;6.772;2023-02-08T03:38:53;-0.70;99.90
5775;DHT22;2913;51.120;6.772;2023-02-08T03:41:34;-0.70;99.90
5775;DHT22;2913;51.120;6.772;2023-02-08T03:44:06;-0.70;99.90
5775;DHT22;2913;51.120;6.772;2023-02-08T03:46:43;-0.70;99.90
5775;DHT22;2913;51.120;6.772;2023-02-08T03:49:14;-0.70;99.90
5775;DHT22;2913;51.120;6.772;2023-02-08T03:51:44;-0.60;99.90
5775;DHT22;2913;51.120;6.772;2023-02-08T03:54:19;-0.60;99.90
5775;DHT22;2913;51.120;6.772;2023-02-08T03:56:56;-0.60;99.90
5775;DHT22;2913;51.120;6.772;2023-02-08T03:59:26;-0.60;99.90
5775;DHT22;2913;51.120;6.772;2023-02-08T04:02:01;-0.60;99.90
5775;DHT22;2913;51.120;6.772;2023-02-08T04:04:31;-0.70;99.90
5775;DHT22;2913;51.120;6.772;2023-02-08T04:06:58;-0.70;99.90
5775;DHT22;2913;51.120;6.772;2023-02-08T04:09:26;-0.60;99.90
5775;DHT22;2913;51.120;6.772;2023-02-08T04:11:51;-0.70;99.90
5775;DHT22;2913;51.120;6.772;2023-02-08T04:14:17;-0.60;99.90
5775;DHT22;2913;51.120;6.772;2023-02-08T04:16:45;-0.70;99.90
5775;DHT22;2913;51.120;6.772;2023-02-08T04:19:10;-0.70;99.90
5775;DHT22;2913;51.120;6.772;2023-02-08T04:21:36;-0.70;99.90
5775;DHT22;2913;51.120;6.772;2023-02-08T04:24:02;-0.70;99.90
5775;DHT22;2913;51.120;6.772;2023-02-08T04:26:27;-0.70;99.90
5775;DHT22;2913;51.120;6.772;2023-02-08T04:28:53;-0.60;99.90
5775;DHT22;2913;51.120;6.772;2023-02-08T04:31:18;-0.60;99.90
5775;DHT22;2913;51.120;6.772;2023-02-08T04:33:44;-0.60;99.90
5775;DHT22;2913;51.120;6.772;2023-02-08T04:36:10;-0.60;99.90
5775;DHT22;2913;51.120;6.772;2023-02-08T04:38:37;-0.60;99.90
5775;DHT22;2913;51.120;6.772;2023-02-08T04:41:05;-0.60;99.90
5775;DHT22;2913;51.120;6.772;2023-02-08T04:43:31;-0.60;99.90
5775;DHT22;2913;51.120;6.772;2023-02-08T04:46:02;-0.60;99.90
5775;DHT22;2913;51.120;6.772;2023-02-08T04:48:28;-0.60;99.90
5775;DHT22;2913;51.120;6.772;2023-02-08T04:50:55;-0.60;99.90
5775;DHT22;2913;51.120;6.772;2023-02-08T04:53:21;-0.60;99.90
5775;DHT22;2913;51.120;6.772;2023-02-08T04:55:47;-0.50;99.90
5775;DHT22;2913;51.120;6.772;2023-02-08T04:58:15;-0.50;99.90
5775;DHT22;2913;51.120;6.772;2023-02-08T05:00:40;-0.50;99.90
5775;DHT22;2913;51.120;6.772;2023-02-08T05:03:06;-0.40;99.90
5775;DHT22;2913;51.120;6.772;2023-02-08T05:05:34;-0.50;99.90
5775;DHT22;2913;51.120;6.772;2023-02-08T05:08:02;-0.50;99.90
5775;DHT22;2913;51.120;6.772;2023-02-08T05:10:30;-0.50;99.90
5775;DHT22;2913;51.120;6.772;2023-02-08T05:12:56;-0.50;99.90
5775;DHT22;2913;51.120;6.772;2023-02-08T05:15:21;-0.50;99.90
5775;DHT22;2913;51.120;6.772;2023-02-08T05:17:47;-0.60;99.90
5775;DHT22;2913;51.120;6.772;2023-02-08T05:20:16;-0.60;99.90
5775;DHT22;2913;51.120;6.772;2023-02-08T05:22:44;-0.70;99.90
5775;DHT22;2913;51.120;6.772;2023-02-08T05:25:09;-0.60;99.90
5775;DHT22;2913;51.120;6.772;2023-02-08T05:27:35;-0.70;99.90
5775;DHT22;2913;51.120;6.772;2023-02-08T05:30:02;-0.60;99.90
5775;DHT22;2913;51.120;6.772;2023-02-08T05:32:28;-0.60;99.90
5775;DHT22;2913;51.120;6.772;2023-02-08T05:34:54;-0.60;99.90
5775;DHT22;2913;51.120;6.772;2023-02-08T05:37:19;-0.60;99.90
5775;DHT22;2913;51.120;6.772;2023-02-08T05:39:45;-0.60;99.90
5775;DHT22;2913;51.120;6.772;2023-02-08T05:42:13;-0.70;99.90
5775;DHT22;2913;51.120;6.772;2023-02-08T05:44:38;-0.70;99.90
5775;DHT22;2913;51.120;6.772;2023-02-08T05:47:04;-0.80;99.90
5775;DHT22;2913;51.120;6.772;2023-02-08T05:49:30;-0.90;99.90
5775;DHT22;2913;51.120;6.772;2023-02-08T05:51:55;-0.90;99.90
5775;DHT22;2913;51.120;6.772;2023-02-08T05:54:21;-1.00;99.90
5775;DHT22;2913;51.120;6.772;2023-02-08T05:56:49;-1.00;99.90
5775;DHT22;2913;51.120;6.772;2023-02-08T05:59:15;-1.00;99.90
5775;DHT22;2913;51.120;6.772;2023-02-08T06:01:42;-1.00;99.90
5775;DHT22;2913;51.120;6.772;2023-02-08T06:04:08;-1.00;99.90
5775;DHT22;2913;51.120;6.772;2023-02-08T06:06:34;-1.00;99.90
5775;DHT22;2913;51.120;6.772;2023-02-08T06:08:59;-1.10;99.90
5775;DHT22;2913;51.120;6.772;2023-02-08T06:11:25;-1.00;99.90
5775;DHT22;2913;51.120;6.772;2023-02-08T06:13:52;-1.00;99.90
5775;DHT22;2913;51.120;6.772;2023-02-08T06:16:17;-1.00;99.90
5775;DHT22;2913;51.120;6.772;2023-02-08T06:18:43;-1.00;99.90
5775;DHT22;2913;51.120;6.772;2023-02-08T06:21:09;-1.00;99.90
5775;DHT22;2913;51.120;6.772;2023-02-08T06:23:34;-1.10;99.90
5775;DHT22;2913;51.120;6.772;2023-02-08T06:26:00;-1.10;99.90
5775;DHT22;2913;51.120;6.772;2023-02-08T06:28:26;-1.10;99.90
5775;DHT22;2913;51.120;6.772;2023-02-08T06:30:51;-1.10;99.90
5775;DHT22;2913;51.120;6.772;2023-02-08T06:33:20;-1.10;99.90
5775;DHT22;2913;51.120;6.772;2023-02-08T06:35:49;-1.10;99.90
5775;DHT22;2913;51.120;6.772;2023-02-08T06:38:15;-1.10;99.90
5775;DHT22;2913;51.120;6.772;2023-02-08T06:40:40;-1.10;99.90
5775;DHT22;2913;51.120;6.772;2023-02-08T06:43:06;-1.20;99.90
5775;DHT22;2913;51.120;6.772;2023-02-08T06:45:32;-1.30;99.90
5775;DHT22;2913;51.120;6.772;2023-02-08T06:47:59;-1.30;99.90
5775;DHT22;2913;51.120;6.772;2023-02-08T06:50:28;-1.40;99.90
5775;DHT22;2913;51.120;6.772;2023-02-08T06:52:53;-1.40;99.90
5775;DHT22;2913;51.120;6.772;2023-02-08T06:55:19;-1.40;99.90
5775;DHT22;2913;51.120;6.772;2023-02-08T06:57:44;-1.40;99.90
5775;DHT22;2913;51.120;6.772;2023-02-08T07:00:13;-1.30;99.90
5775;DHT22;2913;51.120;6.772;2023-02-08T07:02:39;-1.30;99.90
5775;DHT22;2913;51.120;6.772;2023-02-08T07:05:07;-1.30;99.90
5775;DHT22;2913;51.120;6.772;2023-02-08T07:07:32;-1.20;99.90
5775;DHT22;2913;51.120;6.772;2023-02-08T07:09:58;-1.20;99.90
5775;DHT22;2913;51.120;6.772;2023-02-08T07:12:23;-1.10;99.90
5775;DHT22;2913;51.120;6.772;2023-02-08T07:14:49;-1.10;99.90
5775;DHT22;2913;51.120;6.772;2023-02-08T07:17:15;-1.10;99.90
5775;DHT22;2913;51.120;6.772;2023-02-08T07:19:43;-1.10;99.90
5775;DHT22;2913;51.120;6.772;2023-02-08T07:22:11;-1.00;99.90
5775;DHT22;2913;51.120;6.772;2023-02-08T07:24:40;-1.00;99.90
5775;DHT22;2913;51.120;6.772;2023-02-08T07:27:08;-0.90;99.90
5775;DHT22;2913;51.120;6.772;2023-02-08T07:29:34;-0.90;99.90
5775;DHT22;2913;51.120;6.772;2023-02-08T07:32:01;-0.80;99.90
5775;DHT22;2913;51.120;6.772;2023-02-08T07:34:29;-0.70;99.90
5775;DHT22;2913;51.120;6.772;2023-02-08T07:36:57;-0.50;99.90
5775;DHT22;2913;51.120;6.772;2023-02-08T07:39:23;-0.40;99.90
5775;DHT22;2913;51.120;6.772;2023-02-08T07:41:52;-0.30;99.90
5775;DHT22;2913;51.120;6.772;2023-02-08T07:44:20;-0.30;99.90
5775;DHT22;2913;51.120;6.772;2023-02-08T07:46:48;-0.20;99.90
5775;DHT22;2913;51.120;6.772;2023-02-08T07:49:14;-0.10;99.90
5775;DHT22;2913;51.120;6.772;2023-02-08T07:51:44;0.00;99.90
5775;DHT22;2913;51.120;6.772;2023-02-08T07:54:10;0.20;99.90
5775;DHT22;2913;51.120;6.772;2023-02-08T07:56:36;0.30;99.90
5775;DHT22;2913;51.120;6.772;2023-02-08T07:59:03;0.50;99.90
5775;DHT22;2913;51.120;6.772;2023-02-08T08:01:29;0.70;99.90
5775;DHT22;2913;51.120;6.772;2023-02-08T08:03:55;0.80;99.90
5775;DHT22;2913;51.120;6.772;2023-02-08T08:06:24;1.00;99.90
5775;DHT22;2913;51.120;6.772;2023-02-08T08:08:49;1.10;99.90
5775;DHT22;2913;51.120;6.772;2023-02-08T08:11:19;1.10;99.90
5775;DHT22;2913;51.120;6.772;2023-02-08T08:13:45;1.20;99.90
5775;DHT22;2913;51.120;6.772;2023-02-08T08:16:11;1.20;99.90
5775;DHT22;2913;51.120;6.772;2023-02-08T08:18:36;1.30;99.90
5775;DHT22;2913;51.120;6.772;2023-02-08T08:21:02;1.30;99.90
5775;DHT22;2913;51.120;6.772;2023-02-08T08:23:30;1.50;99.90
5775;DHT22;2913;51.120;6.772;2023-02-08T08:25:58;1.60;99.90
5775;DHT22;2913;51.120;6.772;2023-02-08T08:28:26;1.70;99.90
5775;DHT22;2913;51.120;6.772;2023-02-08T08:30:52;1.80;99.90
5775;DHT22;2913;51.120;6.772;2023-02-08T08:33:17;1.80;99.90
5775;DHT22;2913;51.120;6.772;2023-02-08T08:35:45;1.90;99.90
5775;DHT22;2913;51.120;6.772;2023-02-08T08:38:11;2.00;99.90
5775;DHT22;2913;51.120;6.772;2023-02-08T08:40:42;1.90;99.90
5775;DHT22;2913;51.120;6.772;2023-02-08T08:43:07;1.90;99.90
5775;DHT22;2913;51.120;6.772;2023-02-08T08:45:33;1.80;99.80
5775;DHT22;2913;51.120;6.772;2023-02-08T08:48:03;1.70;98.70
5775;DHT22;2913;51.120;6.772;2023-02-08T08:50:29;1.80;99.90
5775;DHT22;2913;51.120;6.772;2023-02-08T08:52:57;1.90;99.60
5775;DHT22;2913;51.120;6.772;2023-02-08T08:55:22;1.90;98.40
5775;DHT22;2913;51.120;6.772;2023-02-08T08:57:48;2.00;98.60
5775;DHT22;2913;51.120;6.772;2023-02-08T09:00:16;2.00;97.80
5775;DHT22;2913;51.120;6.772;2023-02-08T09:02:42;2.10;98.50
5775;DHT22;2913;51.120;6.772;2023-02-08T09:05:07;1.90;96.90
5775;DHT22;2913;51.120;6.772;2023-02-08T09:07:33;2.00;98.30
5775;DHT22;2913;51.120;6.772;2023-02-08T09:10:02;2.10;98.60
5775;DHT22;2913;51.120;6.772;2023-02-08T09:12:30;2.20;97.60
5775;DHT22;2913;51.120;6.772;2023-02-08T09:14:58;2.20;96.80
5775;DHT22;2913;51.120;6.772;2023-02-08T09:17:24;2.30;97.00
5775;DHT22;2913;51.120;6.772;2023-02-08T09:19:49;2.40;98.40
5775;DHT22;2913;51.120;6.772;2023-02-08T09:22:15;2.40;97.10
5775;DHT22;2913;51.120;6.772;2023-02-08T09:24:41;2.40;97.20
5775;DHT22;2913;51.120;6.772;2023-02-08T09:27:06;2.50;96.40
5775;DHT22;2913;51.120;6.772;2023-02-08T09:29:32;2.50;95.70
5775;DHT22;2913;51.120;6.772;2023-02-08T09:31:58;2.50;95.10
5775;DHT22;2913;51.120;6.772;2023-02-08T09:34:24;2.50;96.00
5775;DHT22;2913;51.120;6.772;2023-02-08T09:36:50;2.60;96.20
5775;DHT22;2913;51.120;6.772;2023-02-08T09:39:20;2.80;95.20
5775;DHT22;2913;51.120;6.772;2023-02-08T09:47:34;3.00;93.70
5775;DHT22;2913;51.120;6.772;2023-02-08T09:53:10;3.10;92.70
5775;DHT22;2913;51.120;6.772;2023-02-08T09:55:48;3.20;92.20
5775;DHT22;2913;51.120;6.772;2023-02-08T09:58:38;3.40;93.60
5775;DHT22;2913;51.120;6.772;2023-02-08T10:01:13;3.60;91.90
5775;DHT22;2913;51.120;6.772;2023-02-08T10:03:43;3.60;88.00
5775;DHT22;2913;51.120;6.772;2023-02-08T10:06:13;3.80;86.30
5775;DHT22;2913;51.120;6.772;2023-02-08T10:08:40;3.80;84.30
5775;DHT22;2913;51.120;6.772;2023-02-08T10:18:49;4.00;85.70
5775;DHT22;2913;51.120;6.772;2023-02-08T10:24:04;4.20;83.30
5775;DHT22;2913;51.120;6.772;2023-02-08T10:37:40;4.40;76.30
5775;DHT22;2913;51.120;6.772;2023-02-08T10:40:55;4.50;74.50
5775;DHT22;2913;51.120;6.772;2023-02-08T10:46:16;4.60;70.90
5775;DHT22;2913;51.120;6.772;2023-02-08T10:51:34;4.80;69.70
5775;DHT22;2913;51.120;6.772;2023-02-08T10:54:00;4.90;70.90
5775;DHT22;2913;51.120;6.772;2023-02-08T10:58:56;5.00;69.60
5775;DHT22;2913;51.120;6.772;2023-02-08T11:01:22;5.00;68.50
5775;DHT22;2913;51.120;6.772;2023-02-08T11:04:04;5.10;68.80
5775;DHT22;2913;51.120;6.772;2023-02-08T11:06:30;5.10;67.30
5775;DHT22;2913;51.120;6.772;2023-02-08T11:08:56;5.30;67.10
5775;DHT22;2913;51.120;6.772;2023-02-08T11:11:24;5.40;65.60
5775;DHT22;2913;51.120;6.772;2023-02-08T11:14:08;5.60;64.80
5775;DHT22;2913;51.120;6.772;2023-02-08T11:16:36;5.60;64.40
5775;DHT22;2913;51.120;6.772;2023-02-08T11:19:03;5.70;62.40
5775;DHT22;2913;51.120;6.772;2023-02-08T11:21:34;5.60;62.60
5775;DHT22;2913;51.120;6.772;2023-02-08T11:26:52;5.70;61.50
5775;DHT22;2913;51.120;6.772;2023-02-08T11:29:21;5.80;60.40
5775;DHT22;2913;51.120;6.772;2023-02-08T11:31:58;5.90;60.50
5775;DHT22;2913;51.120;6.772;2023-02-08T11:36:53;6.10;59.90
5775;DHT22;2913;51.120;6.772;2023-02-08T11:39:36;5.80;58.70
5775;DHT22;2913;51.120;6.772;2023-02-08T11:42:03;6.10;58.00
5775;DHT22;2913;51.120;6.772;2023-02-08T11:44:34;6.20;58.30
5775;DHT22;2913;51.120;6.772;2023-02-08T11:47:03;6.20;58.10
5775;DHT22;2913;51.120;6.772;2023-02-08T11:49:40;6.20;57.40
5775;DHT22;2913;51.120;6.772;2023-02-08T11:52:33;6.10;56.90
5775;DHT22;2913;51.120;6.772;2023-02-08T11:55:20;6.30;58.30
5775;DHT22;2913;51.120;6.772;2023-02-08T12:00:30;6.40;57.90
5775;DHT22;2913;51.120;6.772;2023-02-08T12:03:06;6.60;57.90
5775;DHT22;2913;51.120;6.772;2023-02-08T12:22:39;6.90;55.50
5775;DHT22;2913;51.120;6.772;2023-02-08T12:43:31;7.20;54.10
5775;DHT22;2913;51.120;6.772;2023-02-08T12:46:11;7.40;53.70
5775;DHT22;2913;51.120;6.772;2023-02-08T12:54:34;7.30;52.50
5775;DHT22;2913;51.120;6.772;2023-02-08T12:57:08;7.30;52.50
5775;DHT22;2913;51.120;6.772;2023-02-08T12:59:49;7.40;52.70
5775;DHT22;2913;51.120;6.772;2023-02-08T13:02:37;7.50;53.00
5775;DHT22;2913;51.120;6.772;2023-02-08T13:05:16;7.40;52.30
5775;DHT22;2913;51.120;6.772;2023-02-08T13:07:45;7.40;52.30
5775;DHT22;2913;51.120;6.772;2023-02-08T13:10:38;7.60;52.10
5775;DHT22;2913;51.120;6.772;2023-02-08T13:15:44;7.60;52.10
5775;DHT22;2913;51.120;6.772;2023-02-08T13:18:28;7.70;52.50
5775;DHT22;2913;51.120;6.772;2023-02-08T13:21:15;7.70;51.50
5775;DHT22;2913;51.120;6.772;2023-02-08T13:23:45;7.80;52.50
5775;DHT22;2913;51.120;6.772;2023-02-08T13:28:56;7.70;51.00
5775;DHT22;2913;51.120;6.772;2023-02-08T13:31:28;7.70;51.10
5775;DHT22;2913;51.120;6.772;2023-02-08T13:34:00;7.70;51.30
5775;DHT22;2913;51.120;6.772;2023-02-08T13:36:34;7.90;51.20
5775;DHT22;2913;51.120;6.772;2023-02-08T13:39:04;7.90;50.90
5775;DHT22;2913;51.120;6.772;2023-02-08T13:41:31;7.90;51.00
5775;DHT22;2913;51.120;6.772;2023-02-08T13:44:04;7.90;50.60
5775;DHT22;2913;51.120;6.772;2023-02-08T13:46:46;7.90;50.40
5775;DHT22;2913;51.120;6.772;2023-02-08T14:05:52;8.00;50.00
5775;DHT22;2913;51.120;6.772;2023-02-08T14:08:51;8.10;49.70
5775;DHT22;2913;51.120;6.772;2023-02-08T14:11:45;8.10;49.20
5775;DHT22;2913;51.120;6.772;2023-02-08T14:14:36;8.00;50.00
5775;DHT22;2913;51.120;6.772;2023-02-08T14:19:41;8.00;50.30
5775;DHT22;2913;51.120;6.772;2023-02-08T14:24:43;8.00;50.50
5775;DHT22;2913;51.120;6.772;2023-02-08T14:29:43;8.00;50.30
5775;DHT22;2913;51.120;6.772;2023-02-08T14:32:22;8.00;50.70
5775;DHT22;2913;51.120;6.772;2023-02-08T14:35:07;8.00;50.90
5775;DHT22;2913;51.120;6.772;2023-02-08T14:37:36;8.00;50.70
5775;DHT22;2913;51.120;6.772;2023-02-08T14:45:39;8.20;51.60
5775;DHT22;2913;51.120;6.772;2023-02-08T14:58:44;8.20;51.10
5775;DHT22;2913;51.120;6.772;2023-02-08T15:01:42;8.10;52.40
5775;DHT22;2913;51.120;6.772;2023-02-08T15:04:13;8.10;52.10
5775;DHT22;2913;51.120;6.772;2023-02-08T15:09:24;7.90;50.60
5775;DHT22;2913;51.120;6.772;2023-02-08T15:12:26;7.90;50.90
5775;DHT22;2913;51.120;6.772;2023-02-08T15:14:56;7.90;50.90
5775;DHT22;2913;51.120;6.772;2023-02-08T15:17:43;7.90;50.60
5775;DHT22;2913;51.120;6.772;2023-02-08T15:22:55;7.80;51.20
5775;DHT22;2913;51.120;6.772;2023-02-08T15:25:25;7.80;51.30
5775;DHT22;2913;51.120;6.772;2023-02-08T15:27:56;7.70;51.30
5775;DHT22;2913;51.120;6.772;2023-02-08T15:30:30;7.70;51.10
5775;DHT22;2913;51.120;6.772;2023-02-08T15:33:01;7.70;51.50
5775;DHT22;2913;51.120;6.772;2023-02-08T15:35:28;7.60;52.10
5775;DHT22;2913;51.120;6.772;2023-02-08T15:37:56;7.60;52.10
5775;DHT22;2913;51.120;6.772;2023-02-08T15:40:28;7.60;52.50
5775;DHT22;2913;51.120;6.772;2023-02-08T15:43:02;7.60;53.00
5775;DHT22;2913;51.120;6.772;2023-02-08T15:45:28;7.60;53.70
5775;DHT22;2913;51.120;6.772;2023-02-08T15:47:59;7.50;53.40
5775;DHT22;2913;51.120;6.772;2023-02-08T15:50:28;7.60;53.80
5775;DHT22;2913;51.120;6.772;2023-02-08T15:53:02;7.50;54.40
5775;DHT22;2913;51.120;6.772;2023-02-08T15:55:30;7.50;54.70
5775;DHT22;2913;51.120;6.772;2023-02-08T15:58:00;7.40;54.50
5775;DHT22;2913;51.120;6.772;2023-02-08T16:00:33;7.40;54.20
5775;DHT22;2913;51.120;6.772;2023-02-08T16:03:05;7.40;54.60
5775;DHT22;2913;51.120;6.772;2023-02-08T16:05:37;7.30;54.90
5775;DHT22;2913;51.120;6.772;2023-02-08T16:08:02;7.30;55.30
5775;DHT22;2913;51.120;6.772;2023-02-08T16:10:45;7.20;54.50
5775;DHT22;2913;51.120;6.772;2023-02-08T16:13:16;7.20;55.20
5775;DHT22;2913;51.120;6.772;2023-02-08T16:15:50;7.20;55.70
5775;DHT22;2913;51.120;6.772;2023-02-08T16:18:44;7.10;55.90
5775;DHT22;2913;51.120;6.772;2023-02-08T16:21:37;7.00;55.60
5775;DHT22;2913;51.120;6.772;2023-02-08T16:29:30;6.90;55.70
5775;DHT22;2913;51.120;6.772;2023-02-08T16:32:07;6.90;56.10
5775;DHT22;2913;51.120;6.772;2023-02-08T16:34:42;6.80;56.40
5775;DHT22;2913;51.120;6.772;2023-02-08T16:37:22;6.70;56.50
5775;DHT22;2913;51.120;6.772;2023-02-08T16:39:52;6.70;56.60
5775;DHT22;2913;51.120;6.772;2023-02-08T16:50:05;6.40;56.60
5775;DHT22;2913;51.120;6.772;2023-02-08T16:52:32;6.30;56.80
5775;DHT22;2913;51.120;6.772;2023-02-08T16:55:00;6.20;57.20
5775;DHT22;2913;51.120;6.772;2023-02-08T16:58:01;6.10;57.60
5775;DHT22;2913;51.120;6.772;2023-02-08T17:00:29;6.00;57.90
5775;DHT22;2913;51.120;6.772;2023-02-08T17:02:56;5.90;58.20
5775;DHT22;2913;51.120;6.772;2023-02-08T17:05:29;5.90;57.40
5775;DHT22;2913;51.120;6.772;2023-02-08T17:07:55;5.90;56.60
5775;DHT22;2913;51.120;6.772;2023-02-08T17:10:32;5.80;56.50
5775;DHT22;2913;51.120;6.772;2023-02-08T17:13:01;5.70;56.40
5775;DHT22;2913;51.120;6.772;2023-02-08T17:15:29;5.70;56.80
5775;DHT22;2913;51.120;6.772;2023-02-08T17:17:57;5.60;56.90
5775;DHT22;2913;51.120;6.772;2023-02-08T17:20:26;5.50;57.20
5775;DHT22;2913;51.120;6.772;2023-02-08T17:22:54;5.50;57.80
5775;DHT22;2913;51.120;6.772;2023-02-08T17:25:20;5.50;58.80
5775;DHT22;2913;51.120;6.772;2023-02-08T17:30:19;5.30;58.50
5775;DHT22;2913;51.120;6.772;2023-02-08T17:32:44;5.30;58.20
5775;DHT22;2913;51.120;6.772;2023-02-08T17:35:13;5.20;57.40
5775;DHT22;2913;51.120;6.772;2023-02-08T17:37:44;5.20;57.80
5775;DHT22;2913;51.120;6.772;2023-02-08T17:40:13;5.10;57.20
5775;DHT22;2913;51.120;6.772;2023-02-08T17:42:38;5.10;57.00
5775;DHT22;2913;51.120;6.772;2023-02-08T17:45:05;5.00;57.10
5775;DHT22;2913;51.120;6.772;2023-02-08T17:47:34;5.10;58.10
5775;DHT22;2913;51.120;6.772;2023-02-08T17:50:02;5.00;57.80
5775;DHT22;2913;51.120;6.772;2023-02-08T17:52:30;5.00;57.80
5775;DHT22;2913;51.120;6.772;2023-02-08T17:54:56;5.00;57.80
5775;DHT22;2913;51.120;6.772;2023-02-08T17:57:24;4.90;58.10
5775;DHT22;2913;51.120;6.772;2023-02-08T17:59:52;4.80;58.30
5775;DHT22;2913;51.120;6.772;2023-02-08T18:02:17;4.80;58.70
5775;DHT22;2913;51.120;6.772;2023-02-08T18:04:43;4.80;58.90
5775;DHT22;2913;51.120;6.772;2023-02-08T18:07:09;4.70;59.10
5775;DHT22;2913;51.120;6.772;2023-02-08T18:09:34;4.70;59.40
5775;DHT22;2913;51.120;6.772;2023-02-08T18:12:00;4.60;59.70
5775;DHT22;2913;51.120;6.772;2023-02-08T18:14:28;4.60;60.00
5775;DHT22;2913;51.120;6.772;2023-02-08T18:16:55;4.60;60.50
5775;DHT22;2913;51.120;6.772;2023-02-08T18:19:21;4.50;60.90
5775;DHT22;2913;51.120;6.772;2023-02-08T18:21:47;4.50;61.40
5775;DHT22;2913;51.120;6.772;2023-02-08T18:24:12;4.50;61.40
5775;DHT22;2913;51.120;6.772;2023-02-08T18:26:41;4.40;61.30
5775;DHT22;2913;51.120;6.772;2023-02-08T18:29:08;4.40;61.70
5775;DHT22;2913;51.120;6.772;2023-02-08T18:31:36;4.30;61.90
5775;DHT22;2913;51.120;6.772;2023-02-08T18:34:03;4.20;62.10
5775;DHT22;2913;51.120;6.772;2023-02-08T18:36:31;4.20;61.90
5775;DHT22;2913;51.120;6.772;2023-02-08T18:38:56;4.20;62.40
5775;DHT22;2913;51.120;6.772;2023-02-08T18:41:27;4.20;62.40
5775;DHT22;2913;51.120;6.772;2023-02-08T18:43:54;4.20;62.50
5775;DHT22;2913;51.120;6.772;2023-02-08T18:46:24;4.10;62.60
5775;DHT22;2913;51.120;6.772;2023-02-08T18:48:51;4.20;62.60
5775;DHT22;2913;51.120;6.772;2023-02-08T18:51:21;4.10;62.40
5775;DHT22;2913;51.120;6.772;2023-02-08T18:53:49;4.00;62.70
5775;DHT22;2913;51.120;6.772;2023-02-08T18:56:19;4.00;62.60
5775;DHT22;2913;51.120;6.772;2023-02-08T18:58:47;4.00;63.10
5775;DHT22;2913;51.120;6.772;2023-02-08T19:01:15;4.00;63.30
5775;DHT22;2913;51.120;6.772;2023-02-08T19:03:43;3.90;63.70
5775;DHT22;2913;51.120;6.772;2023-02-08T19:06:18;3.90;64.50
5775;DHT22;2913;51.120;6.772;2023-02-08T19:08:47;3.80;64.50
5775;DHT22;2913;51.120;6.772;2023-02-08T19:11:22;3.80;65.00
5775;DHT22;2913;51.120;6.772;2023-02-08T19:13:48;3.70;64.60
5775;DHT22;2913;51.120;6.772;2023-02-08T19:16:14;3.70;64.30
5775;DHT22;2913;51.120;6.772;2023-02-08T19:18:44;3.70;65.30
5775;DHT22;2913;51.120;6.772;2023-02-08T19:21:12;3.70;65.80
5775;DHT22;2913;51.120;6.772;2023-02-08T19:23:38;3.60;66.20
5775;DHT22;2913;51.120;6.772;2023-02-08T19:26:21;3.60;66.80
5775;DHT22;2913;51.120;6.772;2023-02-08T19:28:50;3.60;67.00
5775;DHT22;2913;51.120;6.772;2023-02-08T19:31:18;3.50;67.20
5775;DHT22;2913;51.120;6.772;2023-02-08T19:33:49;3.50;67.60
5775;DHT22;2913;51.120;6.772;2023-02-08T19:36:23;3.50;67.60
5775;DHT22;2913;51.120;6.772;2023-02-08T19:38:52;3.40;67.00
5775;DHT22;2913;51.120;6.772;2023-02-08T19:41:38;3.40;67.10